Terminal Aerodrome Forecast
Issued by NWS

Home | Current Version | Previous Version | Text Only | Print | Product List | Glossary Off
Versions: 1 2 3 4 5 6 7 8 9 10 11 12 13 14 15 16 17 18 19 20 21 22 23 24 25 26

000
FTUS43 KABR 152100 AAA
TAFPIR
TAF AMD
KPIR 152149Z 1522/1618 35024G31KT 2SM -SN BR OVC010
      TEMPO 1522/1524 5SM -SN OVC030
     FM160000 33015KT P6SM OVC015=

USA.gov is the U.S. government's official web portal to all federal, state and local government web resources and services.